sensor_id;sensor_type;location;lat;lon;timestamp;P1;durP1;ratioP1;P2;durP2;ratioP2
43519;SDS011;46848;51.980;5.918;2023-07-31T00:01:31;0.98;;;0.57;;
43519;SDS011;46848;51.980;5.918;2023-07-31T00:03:56;0.80;;;0.60;;
43519;SDS011;46848;51.980;5.918;2023-07-31T00:06:22;1.10;;;0.60;;
43519;SDS011;46848;51.980;5.918;2023-07-31T00:08:47;3.55;;;1.05;;
43519;SDS011;46848;51.980;5.918;2023-07-31T00:11:13;1.42;;;0.65;;
43519;SDS011;46848;51.980;5.918;2023-07-31T00:13:38;1.48;;;0.70;;
43519;SDS011;46848;51.980;5.918;2023-07-31T00:16:04;1.83;;;1.00;;
43519;SDS011;46848;51.980;5.918;2023-07-31T00:18:29;1.52;;;0.70;;
43519;SDS011;46848;51.980;5.918;2023-07-31T00:20:55;1.27;;;0.82;;
43519;SDS011;46848;51.980;5.918;2023-07-31T00:23:21;1.90;;;0.70;;
43519;SDS011;46848;51.980;5.918;2023-07-31T00:25:46;1.20;;;0.70;;
43519;SDS011;46848;51.980;5.918;2023-07-31T00:28:12;1.00;;;0.60;;
43519;SDS011;46848;51.980;5.918;2023-07-31T00:30:37;1.05;;;0.70;;
43519;SDS011;46848;51.980;5.918;2023-07-31T00:33:03;0.93;;;0.68;;
43519;SDS011;46848;51.980;5.918;2023-07-31T00:35:28;1.15;;;0.88;;
43519;SDS011;46848;51.980;5.918;2023-07-31T00:37:54;1.30;;;0.80;;
43519;SDS011;46848;51.980;5.918;2023-07-31T00:40:21;1.50;;;0.80;;
43519;SDS011;46848;51.980;5.918;2023-07-31T00:42:46;2.38;;;0.90;;
43519;SDS011;46848;51.980;5.918;2023-07-31T00:45:12;1.95;;;0.98;;
43519;SDS011;46848;51.980;5.918;2023-07-31T00:47:37;2.72;;;1.40;;
43519;SDS011;46848;51.980;5.918;2023-07-31T00:50:03;3.63;;;1.27;;
43519;SDS011;46848;51.980;5.918;2023-07-31T00:52:29;4.20;;;1.73;;
43519;SDS011;46848;51.980;5.918;2023-07-31T00:54:55;4.93;;;2.10;;
43519;SDS011;46848;51.980;5.918;2023-07-31T00:57:20;5.18;;;2.42;;
43519;SDS011;46848;51.980;5.918;2023-07-31T00:59:46;4.65;;;2.53;;
43519;SDS011;46848;51.980;5.918;2023-07-31T01:02:12;7.22;;;3.63;;
43519;SDS011;46848;51.980;5.918;2023-07-31T01:04:37;8.90;;;4.00;;
43519;SDS011;46848;51.980;5.918;2023-07-31T01:07:07;14.20;;;5.00;;
43519;SDS011;46848;51.980;5.918;2023-07-31T01:12:20;14.43;;;5.47;;
43519;SDS011;46848;51.980;5.918;2023-07-31T01:15:02;14.38;;;5.90;;
43519;SDS011;46848;51.980;5.918;2023-07-31T01:17:35;13.45;;;6.38;;
43519;SDS011;46848;51.980;5.918;2023-07-31T01:20:02;13.30;;;5.40;;
43519;SDS011;46848;51.980;5.918;2023-07-31T01:28:12;20.60;;;6.90;;
43519;SDS011;46848;51.980;5.918;2023-07-31T01:30:43;17.75;;;6.47;;
43519;SDS011;46848;51.980;5.918;2023-07-31T01:33:12;18.70;;;6.40;;
43519;SDS011;46848;51.980;5.918;2023-07-31T01:35:43;18.02;;;6.95;;
43519;SDS011;46848;51.980;5.918;2023-07-31T01:38:10;14.55;;;5.90;;
43519;SDS011;46848;51.980;5.918;2023-07-31T01:40:35;18.05;;;6.43;;
43519;SDS011;46848;51.980;5.918;2023-07-31T01:43:01;15.70;;;6.18;;
43519;SDS011;46848;51.980;5.918;2023-07-31T01:45:27;18.85;;;6.85;;
43519;SDS011;46848;51.980;5.918;2023-07-31T01:47:52;19.30;;;7.28;;
43519;SDS011;46848;51.980;5.918;2023-07-31T01:50:18;18.55;;;6.95;;
43519;SDS011;46848;51.980;5.918;2023-07-31T01:52:43;16.73;;;6.65;;
43519;SDS011;46848;51.980;5.918;2023-07-31T01:55:09;18.13;;;5.75;;
43519;SDS011;46848;51.980;5.918;2023-07-31T01:57:36;13.35;;;5.30;;
43519;SDS011;46848;51.980;5.918;2023-07-31T02:00:02;16.38;;;6.10;;
43519;SDS011;46848;51.980;5.918;2023-07-31T02:02:28;13.60;;;6.00;;
43519;SDS011;46848;51.980;5.918;2023-07-31T02:04:53;15.75;;;6.13;;
43519;SDS011;46848;51.980;5.918;2023-07-31T02:07:19;14.30;;;5.90;;
43519;SDS011;46848;51.980;5.918;2023-07-31T02:09:44;13.98;;;5.78;;
43519;SDS011;46848;51.980;5.918;2023-07-31T02:12:11;14.98;;;5.75;;
43519;SDS011;46848;51.980;5.918;2023-07-31T02:14:39;12.60;;;5.93;;
43519;SDS011;46848;51.980;5.918;2023-07-31T02:17:05;16.63;;;6.25;;
43519;SDS011;46848;51.980;5.918;2023-07-31T02:19:31;16.48;;;6.10;;
43519;SDS011;46848;51.980;5.918;2023-07-31T02:21:56;12.90;;;5.50;;
43519;SDS011;46848;51.980;5.918;2023-07-31T02:24:22;13.88;;;5.75;;
43519;SDS011;46848;51.980;5.918;2023-07-31T02:26:49;17.55;;;6.70;;
43519;SDS011;46848;51.980;5.918;2023-07-31T02:29:14;15.45;;;6.15;;
43519;SDS011;46848;51.980;5.918;2023-07-31T02:31:40;11.95;;;5.10;;
43519;SDS011;46848;51.980;5.918;2023-07-31T02:34:05;13.82;;;5.78;;
43519;SDS011;46848;51.980;5.918;2023-07-31T02:36:31;12.95;;;5.45;;
43519;SDS011;46848;51.980;5.918;2023-07-31T02:38:57;10.27;;;5.00;;
43519;SDS011;46848;51.980;5.918;2023-07-31T02:41:22;12.85;;;5.50;;
43519;SDS011;46848;51.980;5.918;2023-07-31T02:43:48;16.50;;;5.95;;
43519;SDS011;46848;51.980;5.918;2023-07-31T02:46:13;11.35;;;5.40;;
43519;SDS011;46848;51.980;5.918;2023-07-31T02:48:39;14.80;;;5.63;;
43519;SDS011;46848;51.980;5.918;2023-07-31T02:51:04;14.98;;;5.53;;
43519;SDS011;46848;51.980;5.918;2023-07-31T02:53:30;11.80;;;5.22;;
43519;SDS011;46848;51.980;5.918;2023-07-31T02:55:55;13.10;;;4.57;;
43519;SDS011;46848;51.980;5.918;2023-07-31T02:58:21;15.00;;;5.65;;
43519;SDS011;46848;51.980;5.918;2023-07-31T03:00:47;13.45;;;5.03;;
43519;SDS011;46848;51.980;5.918;2023-07-31T03:03:12;10.00;;;4.18;;
43519;SDS011;46848;51.980;5.918;2023-07-31T03:05:38;13.20;;;4.97;;
43519;SDS011;46848;51.980;5.918;2023-07-31T03:08:03;13.32;;;5.40;;
43519;SDS011;46848;51.980;5.918;2023-07-31T03:10:29;14.52;;;5.55;;
43519;SDS011;46848;51.980;5.918;2023-07-31T03:12:55;13.93;;;5.72;;
43519;SDS011;46848;51.980;5.918;2023-07-31T03:15:20;18.73;;;5.68;;
43519;SDS011;46848;51.980;5.918;2023-07-31T03:17:46;16.00;;;6.65;;
43519;SDS011;46848;51.980;5.918;2023-07-31T03:20:11;18.92;;;6.35;;
43519;SDS011;46848;51.980;5.918;2023-07-31T03:22:37;15.85;;;5.38;;
43519;SDS011;46848;51.980;5.918;2023-07-31T03:25:03;18.55;;;6.30;;
43519;SDS011;46848;51.980;5.918;2023-07-31T03:27:29;17.45;;;6.15;;
43519;SDS011;46848;51.980;5.918;2023-07-31T03:29:55;16.20;;;6.32;;
43519;SDS011;46848;51.980;5.918;2023-07-31T03:32:20;13.93;;;5.45;;
43519;SDS011;46848;51.980;5.918;2023-07-31T03:34:46;17.08;;;6.25;;
43519;SDS011;46848;51.980;5.918;2023-07-31T03:37:11;16.77;;;5.85;;
43519;SDS011;46848;51.980;5.918;2023-07-31T03:39:37;12.75;;;5.30;;
43519;SDS011;46848;51.980;5.918;2023-07-31T03:42:03;16.00;;;5.78;;
43519;SDS011;46848;51.980;5.918;2023-07-31T03:44:28;19.05;;;6.32;;
43519;SDS011;46848;51.980;5.918;2023-07-31T03:46:54;12.55;;;5.32;;
43519;SDS011;46848;51.980;5.918;2023-07-31T03:49:20;15.48;;;6.15;;
43519;SDS011;46848;51.980;5.918;2023-07-31T03:51:45;14.30;;;5.57;;
43519;SDS011;46848;51.980;5.918;2023-07-31T03:54:11;16.63;;;6.13;;
43519;SDS011;46848;51.980;5.918;2023-07-31T03:56:38;19.42;;;6.30;;
43519;SDS011;46848;51.980;5.918;2023-07-31T03:59:03;17.10;;;5.65;;
43519;SDS011;46848;51.980;5.918;2023-07-31T04:01:29;14.48;;;5.47;;
43519;SDS011;46848;51.980;5.918;2023-07-31T04:03:54;14.05;;;5.82;;
43519;SDS011;46848;51.980;5.918;2023-07-31T04:06:20;15.38;;;6.15;;
43519;SDS011;46848;51.980;5.918;2023-07-31T04:08:46;14.85;;;5.55;;
43519;SDS011;46848;51.980;5.918;2023-07-31T04:11:11;15.23;;;4.88;;
43519;SDS011;46848;51.980;5.918;2023-07-31T04:13:37;14.02;;;6.03;;
43519;SDS011;46848;51.980;5.918;2023-07-31T04:16:03;17.83;;;5.55;;
43519;SDS011;46848;51.980;5.918;2023-07-31T04:18:29;13.15;;;5.78;;
43519;SDS011;46848;51.980;5.918;2023-07-31T04:20:56;15.85;;;5.32;;
43519;SDS011;46848;51.980;5.918;2023-07-31T04:23:23;13.82;;;5.28;;
43519;SDS011;46848;51.980;5.918;2023-07-31T04:25:49;14.07;;;5.03;;
43519;SDS011;46848;51.980;5.918;2023-07-31T04:28:15;16.42;;;5.93;;
43519;SDS011;46848;51.980;5.918;2023-07-31T04:30:40;13.57;;;5.05;;
43519;SDS011;46848;51.980;5.918;2023-07-31T04:33:06;12.90;;;5.05;;
43519;SDS011;46848;51.980;5.918;2023-07-31T04:35:32;12.43;;;5.13;;
43519;SDS011;46848;51.980;5.918;2023-07-31T04:37:57;16.15;;;5.50;;
43519;SDS011;46848;51.980;5.918;2023-07-31T04:40:23;12.38;;;6.00;;
43519;SDS011;46848;51.980;5.918;2023-07-31T04:42:48;17.00;;;5.70;;
43519;SDS011;46848;51.980;5.918;2023-07-31T04:45:14;13.07;;;4.95;;
43519;SDS011;46848;51.980;5.918;2023-07-31T04:47:40;13.25;;;4.85;;
43519;SDS011;46848;51.980;5.918;2023-07-31T04:50:05;13.75;;;4.95;;
43519;SDS011;46848;51.980;5.918;2023-07-31T04:52:31;10.32;;;5.10;;
43519;SDS011;46848;51.980;5.918;2023-07-31T04:54:57;16.98;;;5.95;;
43519;SDS011;46848;51.980;5.918;2023-07-31T04:57:22;17.85;;;5.35;;
43519;SDS011;46848;51.980;5.918;2023-07-31T04:59:48;12.32;;;5.25;;
43519;SDS011;46848;51.980;5.918;2023-07-31T05:02:13;15.13;;;5.63;;
43519;SDS011;46848;51.980;5.918;2023-07-31T05:04:39;14.75;;;4.88;;
43519;SDS011;46848;51.980;5.918;2023-07-31T05:07:05;14.93;;;5.65;;
43519;SDS011;46848;51.980;5.918;2023-07-31T05:09:30;11.52;;;5.50;;
43519;SDS011;46848;51.980;5.918;2023-07-31T05:11:56;10.77;;;4.40;;
43519;SDS011;46848;51.980;5.918;2023-07-31T05:14:22;14.02;;;5.18;;
43519;SDS011;46848;51.980;5.918;2023-07-31T05:16:47;12.77;;;5.32;;
43519;SDS011;46848;51.980;5.918;2023-07-31T05:19:13;13.60;;;4.82;;
43519;SDS011;46848;51.980;5.918;2023-07-31T05:21:39;13.75;;;5.28;;
43519;SDS011;46848;51.980;5.918;2023-07-31T05:24:05;9.55;;;4.90;;
43519;SDS011;46848;51.980;5.918;2023-07-31T05:26:30;10.75;;;4.32;;
43519;SDS011;46848;51.980;5.918;2023-07-31T05:28:56;17.20;;;5.65;;
43519;SDS011;46848;51.980;5.918;2023-07-31T05:31:22;11.98;;;4.50;;
43519;SDS011;46848;51.980;5.918;2023-07-31T05:33:49;10.05;;;4.22;;
43519;SDS011;46848;51.980;5.918;2023-07-31T05:36:15;13.50;;;4.80;;
43519;SDS011;46848;51.980;5.918;2023-07-31T05:38:41;13.27;;;4.85;;
43519;SDS011;46848;51.980;5.918;2023-07-31T05:41:09;14.27;;;4.88;;
43519;SDS011;46848;51.980;5.918;2023-07-31T05:43:35;11.35;;;4.43;;
43519;SDS011;46848;51.980;5.918;2023-07-31T05:46:00;10.38;;;4.32;;
43519;SDS011;46848;51.980;5.918;2023-07-31T05:48:26;8.43;;;3.67;;
43519;SDS011;46848;51.980;5.918;2023-07-31T05:50:52;9.98;;;4.38;;
43519;SDS011;46848;51.980;5.918;2023-07-31T05:53:17;10.13;;;4.35;;
43519;SDS011;46848;51.980;5.918;2023-07-31T05:55:43;9.52;;;4.25;;
43519;SDS011;46848;51.980;5.918;2023-07-31T05:58:09;9.98;;;4.43;;
43519;SDS011;46848;51.980;5.918;2023-07-31T06:00:34;10.50;;;4.65;;
43519;SDS011;46848;51.980;5.918;2023-07-31T06:03:00;9.18;;;4.20;;
43519;SDS011;46848;51.980;5.918;2023-07-31T06:05:25;8.98;;;3.97;;
43519;SDS011;46848;51.980;5.918;2023-07-31T06:07:53;10.55;;;3.90;;
43519;SDS011;46848;51.980;5.918;2023-07-31T06:10:18;11.73;;;4.18;;
43519;SDS011;46848;51.980;5.918;2023-07-31T06:12:44;11.07;;;4.15;;
43519;SDS011;46848;51.980;5.918;2023-07-31T06:15:10;9.63;;;4.10;;
43519;SDS011;46848;51.980;5.918;2023-07-31T06:17:36;9.65;;;4.25;;
43519;SDS011;46848;51.980;5.918;2023-07-31T06:20:01;10.07;;;4.30;;
43519;SDS011;46848;51.980;5.918;2023-07-31T06:22:30;10.15;;;4.13;;
43519;SDS011;46848;51.980;5.918;2023-07-31T06:24:55;9.30;;;4.30;;
43519;SDS011;46848;51.980;5.918;2023-07-31T06:27:21;10.10;;;4.05;;
43519;SDS011;46848;51.980;5.918;2023-07-31T06:29:46;7.93;;;3.33;;
43519;SDS011;46848;51.980;5.918;2023-07-31T06:32:13;9.43;;;3.90;;
43519;SDS011;46848;51.980;5.918;2023-07-31T06:34:38;8.02;;;3.90;;
43519;SDS011;46848;51.980;5.918;2023-07-31T06:37:04;10.00;;;4.00;;
43519;SDS011;46848;51.980;5.918;2023-07-31T06:39:30;7.35;;;3.58;;
43519;SDS011;46848;51.980;5.918;2023-07-31T06:41:55;7.47;;;3.38;;
43519;SDS011;46848;51.980;5.918;2023-07-31T06:44:21;6.05;;;2.88;;
43519;SDS011;46848;51.980;5.918;2023-07-31T06:46:46;6.47;;;3.00;;
43519;SDS011;46848;51.980;5.918;2023-07-31T06:49:12;7.63;;;3.25;;
43519;SDS011;46848;51.980;5.918;2023-07-31T06:51:40;7.00;;;3.17;;
43519;SDS011;46848;51.980;5.918;2023-07-31T06:54:05;7.47;;;3.15;;
43519;SDS011;46848;51.980;5.918;2023-07-31T06:56:31;5.82;;;2.80;;
43519;SDS011;46848;51.980;5.918;2023-07-31T06:58:56;7.95;;;3.15;;
43519;SDS011;46848;51.980;5.918;2023-07-31T07:01:22;4.95;;;2.65;;
43519;SDS011;46848;51.980;5.918;2023-07-31T07:03:48;6.85;;;3.05;;
43519;SDS011;46848;51.980;5.918;2023-07-31T07:06:15;4.82;;;2.47;;
43519;SDS011;46848;51.980;5.918;2023-07-31T07:08:42;6.22;;;2.45;;
43519;SDS011;46848;51.980;5.918;2023-07-31T07:11:07;5.93;;;2.40;;
43519;SDS011;46848;51.980;5.918;2023-07-31T07:13:33;4.53;;;1.80;;
43519;SDS011;46848;51.980;5.918;2023-07-31T07:15:59;5.90;;;2.25;;
43519;SDS011;46848;51.980;5.918;2023-07-31T07:18:24;5.22;;;1.90;;
43519;SDS011;46848;51.980;5.918;2023-07-31T07:20:50;4.65;;;1.88;;
43519;SDS011;46848;51.980;5.918;2023-07-31T07:23:17;2.60;;;1.30;;
43519;SDS011;46848;51.980;5.918;2023-07-31T07:25:44;4.40;;;1.60;;
43519;SDS011;46848;51.980;5.918;2023-07-31T07:28:11;4.47;;;1.27;;
43519;SDS011;46848;51.980;5.918;2023-07-31T07:30:37;2.40;;;1.00;;
43519;SDS011;46848;51.980;5.918;2023-07-31T07:33:03;3.00;;;1.33;;
43519;SDS011;46848;51.980;5.918;2023-07-31T07:35:28;2.95;;;1.02;;
43519;SDS011;46848;51.980;5.918;2023-07-31T07:37:54;3.13;;;1.20;;
43519;SDS011;46848;51.980;5.918;2023-07-31T07:40:20;2.28;;;1.33;;
43519;SDS011;46848;51.980;5.918;2023-07-31T07:42:46;2.00;;;0.73;;
43519;SDS011;46848;51.980;5.918;2023-07-31T07:45:12;1.63;;;0.95;;
43519;SDS011;46848;51.980;5.918;2023-07-31T07:47:38;2.00;;;0.95;;
43519;SDS011;46848;51.980;5.918;2023-07-31T07:50:07;1.80;;;0.80;;
43519;SDS011;46848;51.980;5.918;2023-07-31T07:52:33;2.38;;;0.98;;
43519;SDS011;46848;51.980;5.918;2023-07-31T07:54:59;1.10;;;0.77;;
43519;SDS011;46848;51.980;5.918;2023-07-31T07:57:25;1.63;;;0.73;;
43519;SDS011;46848;51.980;5.918;2023-07-31T07:59:51;1.40;;;0.70;;
43519;SDS011;46848;51.980;5.918;2023-07-31T08:02:16;1.35;;;0.75;;
43519;SDS011;46848;51.980;5.918;2023-07-31T08:04:42;1.33;;;0.63;;
43519;SDS011;46848;51.980;5.918;2023-07-31T08:07:07;2.20;;;0.63;;
43519;SDS011;46848;51.980;5.918;2023-07-31T08:09:35;1.85;;;0.77;;
43519;SDS011;46848;51.980;5.918;2023-07-31T08:12:01;1.83;;;0.75;;
43519;SDS011;46848;51.980;5.918;2023-07-31T08:14:28;1.02;;;0.60;;
43519;SDS011;46848;51.980;5.918;2023-07-31T08:16:54;1.80;;;0.90;;
43519;SDS011;46848;51.980;5.918;2023-07-31T08:19:19;1.55;;;0.80;;
43519;SDS011;46848;51.980;5.918;2023-07-31T08:21:45;2.05;;;0.95;;
43519;SDS011;46848;51.980;5.918;2023-07-31T08:24:10;1.70;;;0.75;;
43519;SDS011;46848;51.980;5.918;2023-07-31T08:26:36;2.58;;;0.90;;
43519;SDS011;46848;51.980;5.918;2023-07-31T08:29:01;2.45;;;0.90;;
43519;SDS011;46848;51.980;5.918;2023-07-31T08:31:27;2.22;;;0.70;;
43519;SDS011;46848;51.980;5.918;2023-07-31T08:33:54;1.80;;;0.80;;
43519;SDS011;46848;51.980;5.918;2023-07-31T08:36:20;2.47;;;1.10;;
43519;SDS011;46848;51.980;5.918;2023-07-31T08:38:45;1.30;;;0.82;;
43519;SDS011;46848;51.980;5.918;2023-07-31T08:41:11;1.90;;;1.08;;
43519;SDS011;46848;51.980;5.918;2023-07-31T08:43:38;2.00;;;1.27;;
43519;SDS011;46848;51.980;5.918;2023-07-31T08:46:05;2.42;;;1.45;;
43519;SDS011;46848;51.980;5.918;2023-07-31T08:48:31;1.92;;;1.10;;
43519;SDS011;46848;51.980;5.918;2023-07-31T08:50:57;2.10;;;1.40;;
43519;SDS011;46848;51.980;5.918;2023-07-31T08:53:22;1.83;;;1.23;;
43519;SDS011;46848;51.980;5.918;2023-07-31T08:55:48;2.40;;;1.27;;
43519;SDS011;46848;51.980;5.918;2023-07-31T08:58:14;1.90;;;1.10;;
43519;SDS011;46848;51.980;5.918;2023-07-31T09:00:40;1.90;;;1.20;;
43519;SDS011;46848;51.980;5.918;2023-07-31T09:03:09;2.03;;;1.20;;
43519;SDS011;46848;51.980;5.918;2023-07-31T09:05:43;3.17;;;1.27;;
43519;SDS011;46848;51.980;5.918;2023-07-31T09:08:10;3.90;;;1.40;;
43519;SDS011;46848;51.980;5.918;2023-07-31T09:10:43;2.17;;;1.38;;
43519;SDS011;46848;51.980;5.918;2023-07-31T09:13:14;1.95;;;1.33;;
43519;SDS011;46848;51.980;5.918;2023-07-31T09:15:43;2.95;;;1.60;;
43519;SDS011;46848;51.980;5.918;2023-07-31T09:18:09;2.05;;;1.45;;
43519;SDS011;46848;51.980;5.918;2023-07-31T09:20:35;2.38;;;1.40;;
43519;SDS011;46848;51.980;5.918;2023-07-31T09:25:35;3.60;;;1.73;;
43519;SDS011;46848;51.980;5.918;2023-07-31T09:28:02;3.22;;;1.65;;
43519;SDS011;46848;51.980;5.918;2023-07-31T09:30:30;2.25;;;1.67;;
43519;SDS011;46848;51.980;5.918;2023-07-31T09:33:02;3.28;;;1.85;;
43519;SDS011;46848;51.980;5.918;2023-07-31T09:35:32;3.72;;;2.05;;
43519;SDS011;46848;51.980;5.918;2023-07-31T09:40:30;3.55;;;1.83;;
43519;SDS011;46848;51.980;5.918;2023-07-31T09:43:05;6.05;;;2.78;;
43519;SDS011;46848;51.980;5.918;2023-07-31T09:45:39;3.22;;;2.00;;
43519;SDS011;46848;51.980;5.918;2023-07-31T09:48:16;4.60;;;2.42;;
43519;SDS011;46848;51.980;5.918;2023-07-31T09:50:43;3.08;;;2.22;;
43519;SDS011;46848;51.980;5.918;2023-07-31T09:53:10;3.78;;;2.65;;
43519;SDS011;46848;51.980;5.918;2023-07-31T09:55:37;3.63;;;2.47;;
43519;SDS011;46848;51.980;5.918;2023-07-31T09:58:03;5.03;;;2.75;;
43519;SDS011;46848;51.980;5.918;2023-07-31T10:00:30;4.07;;;2.67;;
43519;SDS011;46848;51.980;5.918;2023-07-31T10:03:00;6.43;;;2.88;;
43519;SDS011;46848;51.980;5.918;2023-07-31T10:05:36;5.25;;;2.83;;
43519;SDS011;46848;51.980;5.918;2023-07-31T10:08:06;4.93;;;2.90;;
43519;SDS011;46848;51.980;5.918;2023-07-31T10:10:34;4.78;;;2.90;;
43519;SDS011;46848;51.980;5.918;2023-07-31T10:13:01;6.75;;;3.22;;
43519;SDS011;46848;51.980;5.918;2023-07-31T10:15:27;6.30;;;3.53;;
43519;SDS011;46848;51.980;5.918;2023-07-31T10:17:54;6.60;;;3.05;;
43519;SDS011;46848;51.980;5.918;2023-07-31T10:20:21;6.28;;;3.22;;
43519;SDS011;46848;51.980;5.918;2023-07-31T10:22:47;6.68;;;3.78;;
43519;SDS011;46848;51.980;5.918;2023-07-31T10:25:14;5.25;;;3.28;;
43519;SDS011;46848;51.980;5.918;2023-07-31T10:27:42;7.00;;;3.78;;
43519;SDS011;46848;51.980;5.918;2023-07-31T10:30:08;7.93;;;3.45;;
43519;SDS011;46848;51.980;5.918;2023-07-31T10:32:40;7.93;;;4.10;;
43519;SDS011;46848;51.980;5.918;2023-07-31T10:35:08;8.45;;;4.22;;
43519;SDS011;46848;51.980;5.918;2023-07-31T10:37:38;7.22;;;4.28;;
43519;SDS011;46848;51.980;5.918;2023-07-31T10:40:18;11.15;;;4.75;;
43519;SDS011;46848;51.980;5.918;2023-07-31T10:42:48;9.07;;;4.72;;
43519;SDS011;46848;51.980;5.918;2023-07-31T10:45:23;6.30;;;4.05;;
43519;SDS011;46848;51.980;5.918;2023-07-31T10:50:31;7.25;;;4.28;;
43519;SDS011;46848;51.980;5.918;2023-07-31T10:53:01;9.23;;;4.40;;
43519;SDS011;46848;51.980;5.918;2023-07-31T10:55:42;6.10;;;3.78;;
43519;SDS011;46848;51.980;5.918;2023-07-31T10:58:12;8.00;;;4.15;;
43519;SDS011;46848;51.980;5.918;2023-07-31T11:00:41;7.88;;;4.38;;
43519;SDS011;46848;51.980;5.918;2023-07-31T11:03:08;7.07;;;4.30;;
43519;SDS011;46848;51.980;5.918;2023-07-31T11:08:42;6.63;;;4.50;;
43519;SDS011;46848;51.980;5.918;2023-07-31T11:11:09;6.35;;;3.63;;
43519;SDS011;46848;51.980;5.918;2023-07-31T11:13:51;7.15;;;3.33;;
43519;SDS011;46848;51.980;5.918;2023-07-31T11:16:19;6.35;;;3.65;;
43519;SDS011;46848;51.980;5.918;2023-07-31T11:18:46;9.02;;;4.13;;
43519;SDS011;46848;51.980;5.918;2023-07-31T11:21:17;5.93;;;3.50;;
43519;SDS011;46848;51.980;5.918;2023-07-31T11:23:50;6.32;;;3.63;;
43519;SDS011;46848;51.980;5.918;2023-07-31T11:26:17;8.02;;;4.15;;
43519;SDS011;46848;51.980;5.918;2023-07-31T11:28:45;7.82;;;4.15;;
43519;SDS011;46848;51.980;5.918;2023-07-31T11:31:12;4.80;;;3.38;;
43519;SDS011;46848;51.980;5.918;2023-07-31T11:33:37;5.65;;;3.55;;
43519;SDS011;46848;51.980;5.918;2023-07-31T11:36:03;5.60;;;3.85;;
43519;SDS011;46848;51.980;5.918;2023-07-31T11:38:33;5.60;;;3.53;;
43519;SDS011;46848;51.980;5.918;2023-07-31T11:40:59;5.53;;;3.53;;
43519;SDS011;46848;51.980;5.918;2023-07-31T11:43:30;6.95;;;3.20;;
43519;SDS011;46848;51.980;5.918;2023-07-31T11:45:57;5.15;;;3.47;;
43519;SDS011;46848;51.980;5.918;2023-07-31T11:48:28;7.60;;;3.83;;
43519;SDS011;46848;51.980;5.918;2023-07-31T11:50:58;5.88;;;3.33;;
43519;SDS011;46848;51.980;5.918;2023-07-31T11:53:41;5.45;;;3.30;;
43519;SDS011;46848;51.980;5.918;2023-07-31T11:56:10;5.97;;;3.50;;
43519;SDS011;46848;51.980;5.918;2023-07-31T11:58:39;5.72;;;3.40;;
43519;SDS011;46848;51.980;5.918;2023-07-31T12:01:08;5.65;;;3.50;;
43519;SDS011;46848;51.980;5.918;2023-07-31T12:03:34;5.65;;;3.58;;
43519;SDS011;46848;51.980;5.918;2023-07-31T12:06:01;5.75;;;3.30;;
43519;SDS011;46848;51.980;5.918;2023-07-31T12:08:27;6.32;;;3.60;;
43519;SDS011;46848;51.980;5.918;2023-07-31T12:10:53;6.47;;;3.50;;
43519;SDS011;46848;51.980;5.918;2023-07-31T12:13:22;5.60;;;3.20;;
43519;SDS011;46848;51.980;5.918;2023-07-31T12:15:53;5.60;;;3.33;;
43519;SDS011;46848;51.980;5.918;2023-07-31T12:18:21;4.20;;;2.90;;
43519;SDS011;46848;51.980;5.918;2023-07-31T12:20:57;5.45;;;2.85;;
43519;SDS011;46848;51.980;5.918;2023-07-31T12:23:28;6.88;;;3.03;;
43519;SDS011;46848;51.980;5.918;2023-07-31T12:26:09;7.50;;;2.80;;
43519;SDS011;46848;51.980;5.918;2023-07-31T12:28:43;4.68;;;3.10;;
43519;SDS011;46848;51.980;5.918;2023-07-31T12:31:11;6.43;;;3.63;;
43519;SDS011;46848;51.980;5.918;2023-07-31T12:33:44;4.45;;;2.92;;
43519;SDS011;46848;51.980;5.918;2023-07-31T12:36:12;6.93;;;3.25;;
43519;SDS011;46848;51.980;5.918;2023-07-31T12:38:40;5.45;;;3.40;;
43519;SDS011;46848;51.980;5.918;2023-07-31T12:41:06;4.88;;;3.28;;
43519;SDS011;46848;51.980;5.918;2023-07-31T12:43:32;5.75;;;3.17;;
43519;SDS011;46848;51.980;5.918;2023-07-31T12:46:02;5.55;;;3.08;;
43519;SDS011;46848;51.980;5.918;2023-07-31T12:48:28;9.38;;;3.40;;
43519;SDS011;46848;51.980;5.918;2023-07-31T12:50:54;7.38;;;3.88;;
43519;SDS011;46848;51.980;5.918;2023-07-31T12:53:19;6.63;;;3.45;;
43519;SDS011;46848;51.980;5.918;2023-07-31T12:55:45;4.43;;;3.78;;
43519;SDS011;46848;51.980;5.918;2023-07-31T12:58:11;5.15;;;3.30;;
43519;SDS011;46848;51.980;5.918;2023-07-31T13:00:37;6.50;;;3.30;;
43519;SDS011;46848;51.980;5.918;2023-07-31T13:03:03;5.15;;;3.17;;
43519;SDS011;46848;51.980;5.918;2023-07-31T13:05:29;7.03;;;3.90;;
43519;SDS011;46848;51.980;5.918;2023-07-31T13:07:54;5.45;;;3.60;;
43519;SDS011;46848;51.980;5.918;2023-07-31T13:10:21;5.45;;;3.97;;
43519;SDS011;46848;51.980;5.918;2023-07-31T13:12:48;4.40;;;3.10;;
43519;SDS011;46848;51.980;5.918;2023-07-31T13:15:13;6.25;;;4.00;;
43519;SDS011;46848;51.980;5.918;2023-07-31T13:17:39;5.85;;;3.72;;
43519;SDS011;46848;51.980;5.918;2023-07-31T13:20:05;5.72;;;3.45;;
43519;SDS011;46848;51.980;5.918;2023-07-31T13:22:31;5.47;;;3.50;;
43519;SDS011;46848;51.980;5.918;2023-07-31T13:24:57;7.00;;;4.25;;
43519;SDS011;46848;51.980;5.918;2023-07-31T13:27:22;7.15;;;4.15;;
43519;SDS011;46848;51.980;5.918;2023-07-31T13:29:49;6.82;;;3.83;;
43519;SDS011;46848;51.980;5.918;2023-07-31T13:32:16;7.80;;;4.22;;
43519;SDS011;46848;51.980;5.918;2023-07-31T13:34:42;5.20;;;3.20;;
43519;SDS011;46848;51.980;5.918;2023-07-31T13:37:08;5.65;;;3.53;;
43519;SDS011;46848;51.980;5.918;2023-07-31T13:39:34;5.80;;;3.40;;
43519;SDS011;46848;51.980;5.918;2023-07-31T13:42:00;6.53;;;3.55;;
43519;SDS011;46848;51.980;5.918;2023-07-31T13:44:27;5.68;;;3.47;;
43519;SDS011;46848;51.980;5.918;2023-07-31T13:46:52;4.38;;;3.05;;
43519;SDS011;46848;51.980;5.918;2023-07-31T13:49:18;5.70;;;3.13;;
43519;SDS011;46848;51.980;5.918;2023-07-31T13:51:43;5.50;;;3.30;;
43519;SDS011;46848;51.980;5.918;2023-07-31T13:54:20;7.07;;;3.30;;
43519;SDS011;46848;51.980;5.918;2023-07-31T13:56:47;5.30;;;3.22;;
43519;SDS011;46848;51.980;5.918;2023-07-31T13:59:12;4.43;;;2.80;;
43519;SDS011;46848;51.980;5.918;2023-07-31T14:01:40;5.00;;;3.42;;
43519;SDS011;46848;51.980;5.918;2023-07-31T14:04:05;7.70;;;3.63;;
43519;SDS011;46848;51.980;5.918;2023-07-31T14:06:31;5.68;;;3.22;;
43519;SDS011;46848;51.980;5.918;2023-07-31T14:08:56;5.05;;;3.22;;
43519;SDS011;46848;51.980;5.918;2023-07-31T14:11:22;5.88;;;3.40;;
43519;SDS011;46848;51.980;5.918;2023-07-31T14:13:49;8.00;;;3.50;;
43519;SDS011;46848;51.980;5.918;2023-07-31T14:16:15;8.85;;;3.70;;
43519;SDS011;46848;51.980;5.918;2023-07-31T14:18:41;7.88;;;4.10;;
43519;SDS011;46848;51.980;5.918;2023-07-31T14:21:07;6.53;;;3.90;;
43519;SDS011;46848;51.980;5.918;2023-07-31T14:23:32;7.70;;;3.75;;
43519;SDS011;46848;51.980;5.918;2023-07-31T14:25:58;8.27;;;4.60;;
43519;SDS011;46848;51.980;5.918;2023-07-31T14:28:24;6.07;;;3.67;;
43519;SDS011;46848;51.980;5.918;2023-07-31T14:30:49;7.30;;;4.18;;
43519;SDS011;46848;51.980;5.918;2023-07-31T14:33:15;7.13;;;4.25;;
43519;SDS011;46848;51.980;5.918;2023-07-31T14:35:41;7.50;;;4.07;;
43519;SDS011;46848;51.980;5.918;2023-07-31T14:38:06;9.02;;;4.40;;
43519;SDS011;46848;51.980;5.918;2023-07-31T14:40:32;7.93;;;4.28;;
43519;SDS011;46848;51.980;5.918;2023-07-31T14:42:57;7.25;;;3.95;;
43519;SDS011;46848;51.980;5.918;2023-07-31T14:45:23;7.97;;;4.50;;
43519;SDS011;46848;51.980;5.918;2023-07-31T14:47:48;8.05;;;4.05;;
43519;SDS011;46848;51.980;5.918;2023-07-31T14:50:14;8.75;;;4.20;;
43519;SDS011;46848;51.980;5.918;2023-07-31T14:52:40;8.40;;;4.45;;
43519;SDS011;46848;51.980;5.918;2023-07-31T14:55:06;7.57;;;4.32;;
43519;SDS011;46848;51.980;5.918;2023-07-31T14:57:33;6.25;;;3.75;;
43519;SDS011;46848;51.980;5.918;2023-07-31T14:59:58;6.53;;;4.10;;